Time;durP1;ratioP1;P1;durP2;ratioP2;P2;SDS_P1;SDS_P2;PMS_P1;PMS_P2;Temp;Humidity;BMP_temperature;BMP_pressure;BME280_temperature;BME280_humidity;BME280_pressure;Samples;Min_cycle;Max_cycle;Signal;HPM_P1;HPM_P2
2023/12/20 00:01:49;;;;;;;8.00;4.72;;;-2.00;99.90;;;;;;5049938;28;20430;-83
2023/12/20 00:04:14;;;;;;;12.52;5.40;;;-2.00;99.90;;;;;;5041942;28;20025;-84
2023/12/20 00:06:40;;;;;;;9.20;4.97;;;-2.00;99.90;;;;;;5041837;28;20029;-83
2023/12/20 00:09:06;;;;;;;10.35;5.63;;;-2.00;99.90;;;;;;5023495;28;20033;-83
2023/12/20 00:11:31;;;;;;;11.82;5.30;;;-2.10;99.90;;;;;;5042953;28;20025;-83
2023/12/20 00:13:57;;;;;;;11.82;5.03;;;-2.10;99.90;;;;;;5021507;28;20478;-83
2023/12/20 00:16:23;;;;;;;9.50;5.18;;;-2.10;99.90;;;;;;5032660;28;20094;-83
2023/12/20 00:18:52;;;;;;;9.95;5.68;;;-2.20;99.90;;;;;;5048419;28;20044;-83
2023/12/20 00:21:17;;;;;;;9.48;4.50;;;-2.20;99.90;;;;;;5052421;28;20108;-83
2023/12/20 00:23:43;;;;;;;11.00;6.13;;;-2.30;99.90;;;;;;5052317;28;20059;-84
2023/12/20 00:26:12;;;;;;;8.80;4.72;;;-2.30;99.90;;;;;;5069379;28;20477;-84
2023/12/20 00:28:37;;;;;;;9.32;5.30;;;-2.40;99.90;;;;;;5052012;28;20636;-84
2023/12/20 00:31:04;;;;;;;10.18;5.10;;;-2.40;99.90;;;;;;5052350;28;20081;-84
2023/12/20 00:33:30;;;;;;;12.57;6.05;;;-2.50;99.90;;;;;;5053254;28;20032;-84
2023/12/20 00:35:55;;;;;;;10.10;5.55;;;-2.50;99.90;;;;;;5069061;28;20025;-83
2023/12/20 00:38:21;;;;;;;8.55;4.47;;;-2.40;99.90;;;;;;5041084;28;20037;-83
2023/12/20 00:40:47;;;;;;;11.38;5.28;;;-2.40;99.90;;;;;;5026748;28;20497;-83
2023/12/20 00:43:12;;;;;;;10.68;5.13;;;-2.40;99.90;;;;;;5025406;28;20025;-83
2023/12/20 00:45:38;;;;;;;7.30;4.45;;;-2.40;99.90;;;;;;5037576;28;20520;-83
2023/12/20 00:48:04;;;;;;;12.38;6.30;;;-2.30;99.90;;;;;;5029768;28;20021;-83
2023/12/20 00:50:30;;;;;;;11.70;5.85;;;-2.30;99.90;;;;;;5056360;28;20120;-83
2023/12/20 00:52:56;;;;;;;10.60;5.63;;;-2.30;99.90;;;;;;5056376;28;20032;-83
2023/12/20 00:55:21;;;;;;;10.00;5.75;;;-2.30;99.90;;;;;;5056274;28;20033;-83
2023/12/20 00:57:47;;;;;;;10.45;5.43;;;-2.40;99.90;;;;;;5073086;28;20029;-83
2023/12/20 01:00:13;;;;;;;10.25;5.32;;;-2.50;99.90;;;;;;5073071;28;20064;-84
2023/12/20 01:02:40;;;;;;;9.60;5.88;;;-2.60;99.90;;;;;;5056347;28;20037;-84
2023/12/20 01:05:07;;;;;;;8.73;4.88;;;-2.70;99.90;;;;;;5057300;28;20033;-84
2023/12/20 01:07:33;;;;;;;9.43;5.30;;;-2.80;99.90;;;;;;5058031;28;20033;-84
2023/12/20 01:09:58;;;;;;;12.15;5.32;;;-2.90;99.90;;;;;;5072853;28;20021;-84
2023/12/20 01:12:24;;;;;;;9.75;5.30;;;-2.90;99.90;;;;;;5055932;28;20025;-83
2023/12/20 01:14:50;;;;;;;9.43;5.00;;;-3.00;99.90;;;;;;5040074;28;20091;-83
2023/12/20 01:17:15;;;;;;;8.55;5.30;;;-3.00;99.90;;;;;;5049380;28;20079;-83
2023/12/20 01:19:41;;;;;;;9.10;4.82;;;-3.00;99.90;;;;;;5040278;28;20457;-83
2023/12/20 01:22:07;;;;;;;9.75;5.10;;;-3.00;99.90;;;;;;5039097;28;20557;-83
2023/12/20 01:24:32;;;;;;;9.43;4.85;;;-3.00;99.90;;;;;;5055522;28;20029;-83
2023/12/20 01:26:58;;;;;;;9.10;4.82;;;-3.00;99.90;;;;;;5055389;28;20057;-83
2023/12/20 01:29:24;;;;;;;8.05;4.68;;;-3.00;99.90;;;;;;5051790;28;20025;-83
2023/12/20 01:31:50;;;;;;;9.18;4.55;;;-3.00;99.90;;;;;;5064258;28;20025;-83
2023/12/20 01:34:15;;;;;;;7.80;4.30;;;-3.00;99.90;;;;;;5036007;28;20030;-83
2023/12/20 01:36:41;;;;;;;7.53;3.55;;;-2.90;99.90;;;;;;5052130;28;20108;-83
2023/12/20 01:39:07;;;;;;;9.32;4.07;;;-2.80;99.90;;;;;;5035471;28;20061;-84
2023/12/20 01:41:32;;;;;;;11.43;3.97;;;-2.70;99.90;;;;;;5052137;28;20041;-83
2023/12/20 01:43:58;;;;;;;8.15;4.63;;;-2.70;99.90;;;;;;5035296;28;20033;-83
2023/12/20 01:46:25;;;;;;;8.38;4.45;;;-2.60;99.90;;;;;;5052239;28;20083;-83
2023/12/20 01:48:51;;;;;;;9.02;5.80;;;-2.60;99.90;;;;;;5059174;28;20114;-83
2023/12/20 01:51:17;;;;;;;11.32;5.50;;;-2.60;99.90;;;;;;5043514;28;20017;-83
2023/12/20 01:53:43;;;;;;;10.27;5.20;;;-2.60;99.90;;;;;;5045699;28;20037;-83
2023/12/20 01:56:10;;;;;;;7.80;5.18;;;-2.60;99.90;;;;;;5043034;28;20024;-83
2023/12/20 01:58:43;;;;;;;10.60;6.13;;;-2.50;99.90;;;;;;5055248;28;20039;-83
2023/12/20 02:01:09;;;;;;;9.68;5.07;;;-2.50;99.90;;;;;;5035277;28;20021;-83
2023/12/20 02:03:36;;;;;;;9.13;5.32;;;-2.50;99.90;;;;;;5051666;28;20437;-83
2023/12/20 02:06:05;;;;;;;8.02;4.63;;;-2.40;99.90;;;;;;5038095;28;20096;-83
2023/12/20 02:08:30;;;;;;;9.40;4.18;;;-2.50;99.90;;;;;;5052741;28;20381;-83
2023/12/20 02:10:56;;;;;;;9.43;4.60;;;-2.50;99.90;;;;;;5035552;28;20105;-83
2023/12/20 02:13:22;;;;;;;8.25;4.50;;;-2.50;99.90;;;;;;5051573;28;20497;-83
2023/12/20 02:15:47;;;;;;;11.10;5.00;;;-2.50;99.90;;;;;;5051969;28;20033;-83
2023/12/20 02:18:16;;;;;;;7.63;4.45;;;-2.60;99.90;;;;;;5063105;28;20029;-82
2023/12/20 02:20:42;;;;;;;8.57;4.78;;;-2.50;99.90;;;;;;5046181;28;20024;-83
2023/12/20 02:23:07;;;;;;;8.07;4.90;;;-2.60;99.90;;;;;;5023437;28;20033;-83
2023/12/20 02:25:33;;;;;;;11.98;5.18;;;-2.60;99.90;;;;;;5035042;28;20030;-83
2023/12/20 02:27:59;;;;;;;10.10;4.68;;;-2.60;99.90;;;;;;5033838;28;20482;-83
2023/12/20 02:30:24;;;;;;;7.22;4.32;;;-2.60;99.90;;;;;;5056173;28;20036;-83
2023/12/20 02:32:51;;;;;;;8.93;4.53;;;-2.70;99.90;;;;;;5056367;28;20033;-83
2023/12/20 02:35:16;;;;;;;8.65;4.40;;;-2.60;99.90;;;;;;5056616;28;20501;-83
2023/12/20 02:37:42;;;;;;;12.07;5.30;;;-2.60;99.90;;;;;;5038164;28;20029;-83
2023/12/20 02:40:08;;;;;;;9.90;4.53;;;-2.60;99.90;;;;;;5073030;28;20032;-83
2023/12/20 02:42:34;;;;;;;11.27;5.03;;;-2.60;99.90;;;;;;5037965;28;20039;-82
2023/12/20 02:44:59;;;;;;;23.70;9.50;;;-2.50;99.90;;;;;;5054925;28;20039;-83
2023/12/20 02:47:25;;;;;;;15.88;7.90;;;-2.50;99.90;;;;;;5055893;28;20025;-83
2023/12/20 02:49:52;;;;;;;13.65;6.13;;;-2.50;99.90;;;;;;5037901;28;20052;-83
2023/12/20 02:52:18;;;;;;;12.32;5.80;;;-2.50;99.90;;;;;;5071438;28;20028;-83
2023/12/20 02:54:44;;;;;;;12.15;5.10;;;-2.50;99.90;;;;;;5046638;28;20385;-82
2023/12/20 02:57:09;;;;;;;10.20;5.82;;;-2.50;99.90;;;;;;5024167;28;20030;-83
2023/12/20 02:59:35;;;;;;;13.00;4.93;;;-2.50;99.90;;;;;;5043364;28;20029;-83
2023/12/20 03:02:00;;;;;;;9.23;5.05;;;-2.50;99.90;;;;;;5034905;28;20513;-83
2023/12/20 03:04:26;;;;;;;11.48;5.03;;;-2.50;99.90;;;;;;5025548;28;20512;-82
2023/12/20 03:06:52;;;;;;;9.60;5.00;;;-2.50;99.90;;;;;;5056010;28;20476;-82
2023/12/20 03:09:17;;;;;;;8.77;4.40;;;-2.50;99.90;;;;;;5044314;28;20025;-82
2023/12/20 03:11:43;;;;;;;9.48;4.95;;;-2.40;99.90;;;;;;5054716;28;20075;-83
2023/12/20 03:14:10;;;;;;;8.98;4.50;;;-2.40;99.90;;;;;;5071993;28;20041;-83
2023/12/20 03:16:36;;;;;;;11.23;5.05;;;-2.40;99.90;;;;;;5055280;28;20029;-83
2023/12/20 03:19:01;;;;;;;9.65;5.90;;;-2.40;99.90;;;;;;5071102;28;20033;-82
2023/12/20 03:21:27;;;;;;;8.73;4.97;;;-2.40;99.90;;;;;;5054840;28;20124;-82
2023/12/20 03:23:52;;;;;;;10.60;5.70;;;-2.50;99.90;;;;;;5072099;28;20036;-83
2023/12/20 03:26:19;;;;;;;12.20;6.53;;;-2.50;99.90;;;;;;5056574;28;20078;-82
2023/12/20 03:28:44;;;;;;;9.20;6.03;;;-2.50;99.90;;;;;;5057932;28;20028;-82
2023/12/20 03:31:10;;;;;;;9.43;5.90;;;-2.50;99.90;;;;;;5074703;28;20570;-82
2023/12/20 03:33:36;;;;;;;9.32;6.32;;;-2.40;99.90;;;;;;5057632;28;20112;-82
2023/12/20 03:36:02;;;;;;;10.32;6.30;;;-2.40;99.90;;;;;;5057785;28;20110;-82
2023/12/20 03:38:27;;;;;;;7.50;4.88;;;-2.40;99.90;;;;;;5057756;28;20075;-82
2023/12/20 03:40:53;;;;;;;11.20;4.60;;;-2.40;99.90;;;;;;5057558;28;20028;-82
2023/12/20 03:43:19;;;;;;;9.98;4.60;;;-2.50;99.90;;;;;;5074680;28;20020;-82
2023/12/20 03:45:45;;;;;;;7.97;4.60;;;-2.40;99.90;;;;;;5058326;28;20565;-82
2023/12/20 03:48:11;;;;;;;8.63;4.38;;;-2.40;99.90;;;;;;5061617;28;20060;-79
2023/12/20 03:50:37;;;;;;;7.32;4.35;;;-2.40;99.90;;;;;;5056422;28;20106;-81
2023/12/20 03:53:03;;;;;;;9.38;4.80;;;-2.40;99.90;;;;;;5034112;28;20040;-82
2023/12/20 03:55:29;;;;;;;7.93;4.65;;;-2.40;99.90;;;;;;5050601;28;20021;-82
2023/12/20 03:57:55;;;;;;;8.52;4.28;;;-2.40;99.90;;;;;;5049801;28;20029;-82
2023/12/20 04:00:20;;;;;;;8.73;4.50;;;-2.40;99.90;;;;;;5054730;28;20039;-82
2023/12/20 04:02:46;;;;;;;8.70;4.32;;;-2.40;99.90;;;;;;5055845;28;20025;-82
2023/12/20 04:05:12;;;;;;;13.77;5.40;;;-2.30;99.90;;;;;;5054592;28;20040;-82
2023/12/20 04:07:38;;;;;;;14.32;5.95;;;-2.30;99.90;;;;;;5037962;28;20061;-82
2023/12/20 04:10:04;;;;;;;13.93;6.32;;;-2.30;99.90;;;;;;5054693;28;20025;-82
2023/12/20 04:12:30;;;;;;;34.33;16.00;;;-2.40;99.90;;;;;;5054319;28;20048;-82
2023/12/20 04:14:57;;;;;;;33.28;14.30;;;-2.40;99.90;;;;;;5054457;28;20049;-82
2023/12/20 04:17:22;;;;;;;11.55;6.68;;;-2.40;99.90;;;;;;5034392;28;20026;-82
2023/12/20 04:19:51;;;;;;;11.27;5.55;;;-2.40;99.90;;;;;;5035397;28;20037;-82
2023/12/20 04:22:18;;;;;;;11.80;5.57;;;-2.50;99.90;;;;;;5034290;28;20033;-82
2023/12/20 04:24:44;;;;;;;9.55;5.90;;;-2.40;99.90;;;;;;5034584;28;20171;-82
2023/12/20 04:27:10;;;;;;;11.68;7.07;;;-2.40;99.90;;;;;;5042914;28;20052;-81
2023/12/20 04:29:36;;;;;;;13.35;6.78;;;-2.40;99.90;;;;;;5071354;28;20025;-82
2023/12/20 04:32:01;;;;;;;7.47;5.13;;;-2.40;99.90;;;;;;5049350;28;20075;-81
2023/12/20 04:34:27;;;;;;;12.13;6.18;;;-2.30;99.90;;;;;;5040265;28;20052;-82
2023/12/20 04:36:53;;;;;;;8.07;5.15;;;-2.30;99.90;;;;;;5041692;28;20034;-83
2023/12/20 04:39:19;;;;;;;10.38;5.70;;;-2.30;99.90;;;;;;5055596;28;20037;-83
2023/12/20 04:41:47;;;;;;;11.95;5.43;;;-2.20;99.90;;;;;;5054264;28;20087;-83
2023/12/20 04:44:18;;;;;;;10.07;5.75;;;-2.10;99.90;;;;;;5056282;28;20037;-82
2023/12/20 04:46:44;;;;;;;;;;;-2.10;99.90;;;;;;5057992;28;20086;-82
2023/12/20 04:49:13;;;;;;;8.43;5.05;;;-2.00;99.90;;;;;;5058243;28;20353;-82
2023/12/20 04:51:41;;;;;;;8.80;5.47;;;-2.00;99.90;;;;;;5058536;28;20088;-82
2023/12/20 04:54:06;;;;;;;8.05;4.80;;;-2.00;99.90;;;;;;5075510;28;20029;-82
2023/12/20 04:56:32;;;;;;;11.60;6.85;;;-2.00;99.90;;;;;;5037149;28;20026;-82
2023/12/20 04:59:01;;;;;;;12.30;6.68;;;-1.90;99.90;;;;;;5038153;28;20061;-82
2023/12/20 05:01:27;;;;;;;10.77;5.75;;;-1.90;99.90;;;;;;5037552;28;20029;-82
2023/12/20 05:03:53;;;;;;;14.25;6.05;;;-1.90;99.90;;;;;;5037069;28;20552;-82
2023/12/20 05:06:18;;;;;;;9.10;5.68;;;-1.90;99.90;;;;;;5054535;28;20037;-81
2023/12/20 05:08:44;;;;;;;8.98;5.18;;;-1.90;99.90;;;;;;5052092;28;20040;-82
2023/12/20 05:11:10;;;;;;;9.57;5.10;;;-1.90;99.90;;;;;;5018351;28;20504;-82
2023/12/20 05:13:35;;;;;;;11.55;5.78;;;-1.90;99.90;;;;;;5036064;28;20029;-82
2023/12/20 05:16:01;;;;;;;10.98;5.50;;;-1.90;99.90;;;;;;5053065;28;20040;-81
2023/12/20 05:18:27;;;;;;;11.68;6.10;;;-1.90;99.90;;;;;;5064877;28;20025;-81
2023/12/20 05:20:53;;;;;;;11.00;5.68;;;-1.90;99.90;;;;;;5071935;28;20072;-81
2023/12/20 05:23:20;;;;;;;13.02;7.43;;;-1.90;99.90;;;;;;5074799;28;20116;-81
2023/12/20 05:25:45;;;;;;;12.82;7.50;;;-1.90;99.90;;;;;;5041587;28;20391;-81
2023/12/20 05:28:11;;;;;;;13.27;7.07;;;-1.80;99.90;;;;;;5076334;28;20079;-81
2023/12/20 05:30:37;;;;;;;13.88;7.18;;;-1.80;99.90;;;;;;5063053;28;20054;-81
2023/12/20 05:33:02;;;;;;;13.35;6.72;;;-1.80;99.90;;;;;;5064222;28;20028;-81
2023/12/20 05:35:32;;;;;;;15.45;8.05;;;-1.80;99.90;;;;;;5078942;28;20020;-82
2023/12/20 05:37:58;;;;;;;13.10;8.40;;;-1.80;99.90;;;;;;5063942;28;20029;-82
2023/12/20 05:40:24;;;;;;;12.07;7.78;;;-1.80;99.90;;;;;;5080389;28;20041;-82
2023/12/20 05:42:49;;;;;;;12.40;7.68;;;-1.70;99.90;;;;;;5047029;28;20028;-82
2023/12/20 05:45:15;;;;;;;11.90;6.80;;;-1.70;99.90;;;;;;5061947;28;20108;-82
2023/12/20 05:47:41;;;;;;;12.70;7.85;;;-1.70;99.90;;;;;;5071210;28;20082;-82
2023/12/20 05:50:07;;;;;;;13.05;7.85;;;-1.70;99.90;;;;;;5041720;28;20033;-82
2023/12/20 05:52:32;;;;;;;20.75;9.73;;;-1.70;99.90;;;;;;5058422;28;20112;-82
2023/12/20 05:55:01;;;;;;;15.55;9.15;;;-1.60;99.90;;;;;;5058455;28;20056;-82
2023/12/20 05:57:27;;;;;;;14.82;8.38;;;-1.60;99.90;;;;;;5042135;28;20075;-81
2023/12/20 05:59:52;;;;;;;14.30;7.97;;;-1.60;99.90;;;;;;5041960;28;20033;-82
2023/12/20 06:02:18;;;;;;;13.07;8.07;;;-1.60;99.90;;;;;;5059721;28;20025;-82
2023/12/20 06:04:44;;;;;;;16.60;8.27;;;-1.60;99.90;;;;;;5058205;28;20051;-81
2023/12/20 06:07:12;;;;;;;16.85;9.25;;;-1.50;99.90;;;;;;5058303;28;20033;-81
2023/12/20 06:09:38;;;;;;;12.40;7.30;;;-1.50;99.90;;;;;;5057989;28;20033;-81
2023/12/20 06:12:04;;;;;;;10.10;5.60;;;-1.50;99.90;;;;;;5058147;28;20021;-81
2023/12/20 06:14:30;;;;;;;11.73;5.78;;;-1.50;99.90;;;;;;5059530;28;20388;-81
2023/12/20 06:16:57;;;;;;;9.00;5.03;;;-1.50;99.90;;;;;;5041461;28;20036;-81
2023/12/20 06:19:22;;;;;;;9.15;5.53;;;-1.60;99.90;;;;;;5058900;28;20040;-82
2023/12/20 06:21:48;;;;;;;10.45;5.78;;;-1.60;99.90;;;;;;5058647;28;20029;-81
2023/12/20 06:24:14;;;;;;;11.45;6.05;;;-1.60;99.90;;;;;;5074681;28;20119;-81
2023/12/20 06:26:40;;;;;;;12.93;5.60;;;-1.60;99.90;;;;;;5057536;28;20067;-81
2023/12/20 06:29:06;;;;;;;11.30;5.70;;;-1.60;99.90;;;;;;5058416;28;20035;-81
2023/12/20 06:31:32;;;;;;;12.52;5.57;;;-1.50;99.90;;;;;;5058372;28;20040;-81
2023/12/20 06:33:59;;;;;;;11.52;6.25;;;-1.50;99.90;;;;;;5057607;28;20025;-81
2023/12/20 06:36:28;;;;;;;12.75;6.43;;;-1.50;99.90;;;;;;5057731;28;20029;-81
2023/12/20 06:38:54;;;;;;;11.98;6.55;;;-1.50;99.90;;;;;;5056990;28;20075;-81
2023/12/20 06:41:20;;;;;;;9.73;5.90;;;-1.50;99.90;;;;;;5040454;28;20481;-81
2023/12/20 06:43:45;;;;;;;9.52;6.15;;;-1.40;99.90;;;;;;5056165;28;20428;-81
2023/12/20 06:46:13;;;;;;;10.68;6.10;;;-1.40;99.90;;;;;;5060550;28;20037;-81
2023/12/20 06:48:39;;;;;;;13.55;8.25;;;-1.40;99.90;;;;;;5063211;28;20124;-81
2023/12/20 06:51:05;;;;;;;14.43;8.52;;;-1.40;99.90;;;;;;5064324;28;20048;-81
2023/12/20 06:53:31;;;;;;;12.52;7.78;;;-1.40;99.90;;;;;;5063968;28;20064;-81
2023/12/20 06:55:56;;;;;;;12.88;8.07;;;-1.40;99.90;;;;;;5062663;28;20037;-81
2023/12/20 06:58:23;;;;;;;12.55;7.57;;;-1.30;99.90;;;;;;5062865;28;20477;-81
2023/12/20 07:00:49;;;;;;;13.20;7.85;;;-1.30;99.90;;;;;;5064312;28;20041;-81
2023/12/20 07:03:14;;;;;;;8.73;6.25;;;-1.30;99.90;;;;;;5046078;28;20025;-81
2023/12/20 07:05:40;;;;;;;12.52;6.72;;;-1.30;99.90;;;;;;5045318;28;20029;-81
2023/12/20 07:08:06;;;;;;;9.38;5.93;;;-1.30;99.90;;;;;;5045533;28;20029;-81
2023/12/20 07:10:32;;;;;;;13.32;6.53;;;-1.20;99.90;;;;;;5045730;28;20036;-81
2023/12/20 07:12:58;;;;;;;10.18;5.97;;;-1.20;99.90;;;;;;5062702;28;20021;-81
2023/12/20 07:15:24;;;;;;;9.05;5.38;;;-1.20;99.90;;;;;;5063466;28;20052;-81
2023/12/20 07:17:49;;;;;;;9.80;5.47;;;-1.20;99.90;;;;;;5062690;28;20021;-81
2023/12/20 07:20:15;;;;;;;9.10;5.07;;;-1.20;99.90;;;;;;5065506;28;20033;-81
2023/12/20 07:22:41;;;;;;;9.43;5.07;;;-1.20;99.90;;;;;;5065608;28;20037;-81
2023/12/20 07:25:08;;;;;;;14.25;6.90;;;-1.20;99.90;;;;;;5064853;28;20032;-81
2023/12/20 07:27:33;;;;;;;12.77;7.03;;;-1.20;99.90;;;;;;5065828;28;20028;-81
2023/12/20 07:29:59;;;;;;;16.58;8.75;;;-1.20;99.90;;;;;;5080961;28;20203;-81
2023/12/20 07:32:24;;;;;;;18.65;9.48;;;-1.10;99.90;;;;;;5064299;28;20082;-81
2023/12/20 07:34:50;;;;;;;16.92;9.05;;;-1.10;99.90;;;;;;5046943;28;20025;-81
2023/12/20 07:37:16;;;;;;;16.63;10.48;;;-1.10;99.90;;;;;;5048504;28;20096;-81
2023/12/20 07:39:42;;;;;;;20.92;12.65;;;-1.10;99.90;;;;;;5047490;28;20039;-81
2023/12/20 07:42:08;;;;;;;18.98;11.07;;;-1.10;99.90;;;;;;5062508;28;20029;-81
2023/12/20 07:44:37;;;;;;;21.85;11.93;;;-1.00;99.90;;;;;;5041583;28;20033;-80
2023/12/20 07:47:03;;;;;;;23.42;12.70;;;-1.00;99.90;;;;;;5058076;28;20028;-80
2023/12/20 07:49:31;;;;;;;26.73;13.75;;;-1.00;99.90;;;;;;5041783;28;20370;-80
2023/12/20 07:51:57;;;;;;;17.67;10.02;;;-1.00;99.90;;;;;;5058469;28;20521;-80
2023/12/20 07:54:23;;;;;;;20.75;11.95;;;-1.00;99.90;;;;;;5057536;28;20021;-80
2023/12/20 07:56:49;;;;;;;39.42;18.80;;;-1.00;99.90;;;;;;5058351;28;20036;-81
2023/12/20 07:59:14;;;;;;;31.88;15.68;;;-1.00;99.90;;;;;;5058124;28;20025;-80
2023/12/20 08:01:40;;;;;;;33.60;16.67;;;-1.00;99.90;;;;;;5058247;28;20061;-80
2023/12/20 08:04:06;;;;;;;30.20;14.88;;;-0.90;99.90;;;;;;5041275;28;20079;-80
2023/12/20 08:06:31;;;;;;;25.85;14.02;;;-1.00;99.90;;;;;;5041368;28;20033;-80
2023/12/20 08:08:57;;;;;;;24.85;13.32;;;-1.00;99.90;;;;;;5057656;28;20037;-81
2023/12/20 08:11:23;;;;;;;29.33;13.82;;;-0.90;99.90;;;;;;5057105;28;20033;-80
2023/12/20 08:13:48;;;;;;;32.83;17.85;;;-0.90;99.90;;;;;;5057180;28;20090;-80
2023/12/20 08:16:15;;;;;;;30.88;15.05;;;-0.90;99.90;;;;;;5040849;28;20115;-80
2023/12/20 08:18:41;;;;;;;23.45;12.93;;;-0.90;99.90;;;;;;5058546;28;20508;-80
2023/12/20 08:21:10;;;;;;;23.20;11.82;;;-0.90;99.90;;;;;;5057432;28;20025;-80
2023/12/20 08:23:35;;;;;;;20.80;10.15;;;-0.80;99.90;;;;;;5041294;28;20045;-80
2023/12/20 08:26:08;;;;;;;20.25;11.45;;;-0.80;99.90;;;;;;5059017;28;20515;-80
2023/12/20 08:28:34;;;;;;;21.83;13.10;;;-0.80;99.90;;;;;;5020644;28;20056;-80
2023/12/20 08:31:00;;;;;;;22.83;12.20;;;-0.70;99.90;;;;;;5039423;28;20482;-80
2023/12/20 08:33:26;;;;;;;18.35;11.75;;;-0.70;99.90;;;;;;5045954;28;20432;-80
2023/12/20 08:35:51;;;;;;;18.05;10.20;;;-0.70;99.90;;;;;;5037424;28;20030;-80
2023/12/20 08:38:17;;;;;;;21.77;11.07;;;-0.70;99.90;;;;;;5051618;28;20021;-80
2023/12/20 08:40:44;;;;;;;18.48;11.02;;;-0.70;99.90;;;;;;5037782;28;20509;-80
2023/12/20 08:43:09;;;;;;;18.35;10.23;;;-0.70;99.90;;;;;;5038391;28;20494;-80
2023/12/20 08:45:35;;;;;;;18.35;9.85;;;-0.70;99.90;;;;;;5042847;28;20027;-80
2023/12/20 08:48:01;;;;;;;19.55;10.38;;;-0.70;99.90;;;;;;5045624;28;20124;-80
2023/12/20 08:50:27;;;;;;;19.02;9.75;;;-0.60;99.90;;;;;;5057991;28;20021;-80
2023/12/20 08:52:52;;;;;;;16.10;9.27;;;-0.60;99.90;;;;;;5067744;28;20083;-81
2023/12/20 08:55:19;;;;;;;16.15;8.43;;;-0.60;99.90;;;;;;5064096;28;20188;-80
2023/12/20 08:57:45;;;;;;;14.63;8.35;;;-0.60;99.90;;;;;;5061486;28;20036;-80
2023/12/20 09:00:11;;;;;;;15.02;8.50;;;-0.60;99.90;;;;;;5062083;28;20029;-81
2023/12/20 09:02:37;;;;;;;12.77;7.30;;;-0.60;99.90;;;;;;5059190;28;20029;-80
2023/12/20 09:05:03;;;;;;;14.25;6.88;;;-0.60;99.90;;;;;;5063156;28;20025;-80
2023/12/20 09:07:32;;;;;;;13.10;8.43;;;-0.50;99.90;;;;;;5079975;28;20112;-80
2023/12/20 09:09:58;;;;;;;13.60;8.48;;;-0.50;99.90;;;;;;5063182;28;20025;-80
2023/12/20 09:12:24;;;;;;;18.70;8.32;;;-0.40;99.90;;;;;;5063800;28;20033;-80
2023/12/20 09:14:51;;;;;;;14.43;7.93;;;-0.40;99.90;;;;;;5062945;28;20025;-80
2023/12/20 09:17:17;;;;;;;13.55;7.18;;;-0.40;99.90;;;;;;5062691;28;20051;-80
2023/12/20 09:19:44;;;;;;;13.50;8.00;;;-0.30;99.90;;;;;;5078498;28;20060;-80
2023/12/20 09:22:10;;;;;;;18.90;9.75;;;-0.30;99.90;;;;;;5064647;28;20059;-80
2023/12/20 09:24:36;;;;;;;15.25;8.65;;;-0.30;99.90;;;;;;5080986;28;20033;-80
2023/12/20 09:27:02;;;;;;;17.95;9.18;;;-0.30;99.90;;;;;;5073518;28;20036;-80
2023/12/20 09:29:28;;;;;;;12.50;8.32;;;-0.30;99.90;;;;;;5068181;28;20484;-80
2023/12/20 09:31:54;;;;;;;15.23;8.02;;;-0.20;99.90;;;;;;5083504;28;20044;-80
2023/12/20 09:34:21;;;;;;;19.15;9.98;;;-0.20;99.90;;;;;;5083257;28;20036;-80
2023/12/20 09:36:47;;;;;;;16.50;8.77;;;-0.20;99.90;;;;;;5083775;28;20021;-80
2023/12/20 09:39:20;;;;;;;15.73;8.70;;;-0.20;99.90;;;;;;5067148;28;20058;-80
2023/12/20 09:42:09;;;;;;;18.40;9.77;;;-0.10;99.90;;;;;;5084001;28;20032;-80
2023/12/20 09:44:36;;;;;;;21.73;10.68;;;-0.10;99.90;;;;;;5083830;28;20037;-80
2023/12/20 09:47:06;;;;;;;18.05;9.32;;;-0.10;99.90;;;;;;5084300;28;20033;-80
2023/12/20 09:49:33;;;;;;;16.63;9.23;;;-0.10;99.90;;;;;;5043939;28;20029;-80
2023/12/20 09:52:00;;;;;;;13.38;8.30;;;-0.10;99.90;;;;;;5042695;28;20176;-80
2023/12/20 09:54:28;;;;;;;16.95;8.73;;;-0.10;99.90;;;;;;5042233;28;20026;-80
2023/12/20 09:56:54;;;;;;;12.32;7.10;;;-0.10;99.90;;;;;;5056765;28;20021;-80
2023/12/20 09:59:19;;;;;;;12.43;6.70;;;0.00;99.90;;;;;;5082331;28;20511;-80
2023/12/20 10:01:45;;;;;;;10.95;6.93;;;0.00;99.90;;;;;;5083336;28;20025;-80
2023/12/20 10:04:13;;;;;;;14.20;8.13;;;0.00;99.90;;;;;;5082993;28;20032;-80
2023/12/20 10:06:43;;;;;;;12.02;6.97;;;0.00;99.90;;;;;;5082950;28;20025;-79
2023/12/20 10:09:10;;;;;;;13.55;7.70;;;0.00;99.90;;;;;;5082260;28;20056;-80
2023/12/20 10:11:37;;;;;;;11.63;7.18;;;0.10;99.90;;;;;;5082405;28;20017;-80
2023/12/20 10:14:03;;;;;;;14.05;7.15;;;0.10;99.90;;;;;;5064239;28;20031;-80
2023/12/20 10:16:29;;;;;;;13.68;7.38;;;0.20;99.90;;;;;;5065119;28;20480;-80
2023/12/20 10:18:56;;;;;;;13.13;7.47;;;0.20;99.90;;;;;;5066161;28;20033;-80
2023/12/20 10:21:28;;;;;;;11.40;7.47;;;0.20;99.90;;;;;;5062591;28;20080;-80
2023/12/20 10:23:55;;;;;;;13.18;7.53;;;0.20;99.90;;;;;;5077943;28;20033;-79
2023/12/20 10:26:22;;;;;;;11.95;8.13;;;0.20;99.90;;;;;;5062961;28;20029;-80
2023/12/20 10:28:55;;;;;;;14.48;8.38;;;0.20;99.90;;;;;;5061948;28;20032;-79
2023/12/20 10:31:31;;;;;;;19.73;10.98;;;0.30;99.90;;;;;;5077382;28;20114;-79
2023/12/20 10:33:58;;;;;;;14.90;9.68;;;0.30;99.90;;;;;;5061071;28;20025;-79
2023/12/20 10:36:26;;;;;;;15.48;8.60;;;0.30;99.90;;;;;;5060892;28;20020;-80
2023/12/20 10:38:53;;;;;;;17.30;10.32;;;0.30;99.90;;;;;;5062811;28;20052;-80
2023/12/20 10:41:41;;;;;;;14.70;8.80;;;0.30;99.90;;;;;;5063114;28;20033;-80
2023/12/20 10:44:08;;;;;;;14.23;8.15;;;0.30;99.90;;;;;;5061031;28;20551;-80
2023/12/20 10:46:34;;;;;;;20.15;10.68;;;0.30;99.90;;;;;;5060413;28;20407;-80
2023/12/20 10:49:04;;;;;;;15.27;9.32;;;0.40;99.90;;;;;;5061916;28;20116;-79
2023/12/20 10:51:31;;;;;;;18.13;10.00;;;0.30;99.90;;;;;;5061905;28;20025;-79
2023/12/20 10:53:57;;;;;;;21.77;12.32;;;0.40;99.90;;;;;;5061330;28;20263;-79
2023/12/20 10:56:26;;;;;;;23.63;13.75;;;0.40;99.90;;;;;;5043989;28;20041;-79
2023/12/20 10:58:52;;;;;;;23.73;13.75;;;0.40;99.90;;;;;;5044253;28;20037;-79
2023/12/20 11:01:20;;;;;;;20.00;11.88;;;0.40;99.90;;;;;;5060606;28;20035;-79
2023/12/20 11:03:50;;;;;;;17.52;9.95;;;0.40;99.90;;;;;;5061021;28;20083;-79
2023/12/20 11:06:45;;;;;;;19.98;10.63;;;0.50;99.90;;;;;;5061663;28;20504;-79
2023/12/20 11:09:34;;;;;;;22.85;11.82;;;0.50;99.90;;;;;;5060162;28;20033;-80
2023/12/20 11:12:16;;;;;;;18.00;10.13;;;0.50;99.90;;;;;;5062492;28;20021;-80
2023/12/20 11:14:52;;;;;;;28.80;14.27;;;0.60;99.90;;;;;;5061713;28;20021;-80
2023/12/20 11:17:18;;;;;;;22.10;11.93;;;0.60;99.90;;;;;;5059885;28;20021;-80
2023/12/20 11:19:53;;;;;;;20.20;11.48;;;0.70;99.90;;;;;;5059977;28;20036;-80
2023/12/20 11:22:22;;;;;;;19.83;11.15;;;0.60;99.90;;;;;;5060963;28;20037;-80
2023/12/20 11:24:50;;;;;;;18.65;10.57;;;0.70;99.90;;;;;;5059098;28;20032;-80
2023/12/20 11:27:15;;;;;;;17.13;10.02;;;0.70;99.90;;;;;;5060147;28;20098;-80
2023/12/20 11:29:41;;;;;;;17.38;10.07;;;0.70;99.90;;;;;;5060156;28;20064;-80
2023/12/20 11:32:25;;;;;;;19.13;10.48;;;0.70;99.90;;;;;;5060875;28;20469;-80
2023/12/20 11:34:53;;;;;;;17.75;10.38;;;0.70;99.90;;;;;;5062490;28;20432;-80
2023/12/20 11:37:20;;;;;;;16.92;10.13;;;0.70;99.90;;;;;;5061617;28;20044;-80
2023/12/20 11:39:53;;;;;;;18.08;10.52;;;0.80;99.90;;;;;;5059890;28;20025;-80
2023/12/20 11:42:20;;;;;;;20.48;11.90;;;0.80;99.90;;;;;;5044811;28;20029;-80
2023/12/20 11:44:46;;;;;;;27.70;12.85;;;0.90;99.90;;;;;;5059440;28;20032;-80
2023/12/20 11:47:13;;;;;;;22.25;12.63;;;0.90;99.90;;;;;;5042559;28;20473;-80
2023/12/20 11:49:40;;;;;;;20.60;11.50;;;0.90;99.90;;;;;;5062070;28;20025;-80
2023/12/20 11:52:05;;;;;;;21.73;12.45;;;1.00;99.90;;;;;;5060252;28;20478;-79
2023/12/20 11:54:31;;;;;;;23.13;12.57;;;1.10;99.90;;;;;;5041984;28;20043;-80
2023/12/20 11:56:57;;;;;;;18.73;10.15;;;1.10;99.90;;;;;;5058237;28;20029;-80
2023/12/20 11:59:23;;;;;;;18.90;10.23;;;1.20;99.90;;;;;;5059439;28;20029;-80
2023/12/20 12:01:50;;;;;;;21.92;11.43;;;1.20;99.90;;;;;;5041986;28;20036;-80
2023/12/20 12:04:17;;;;;;;18.15;10.45;;;1.30;99.90;;;;;;5059989;28;20473;-80
2023/12/20 12:06:44;;;;;;;16.65;9.38;;;1.30;99.90;;;;;;5042506;28;20485;-80
2023/12/20 12:09:10;;;;;;;15.77;8.48;;;1.30;99.90;;;;;;5059061;28;20033;-80
2023/12/20 12:11:39;;;;;;;13.35;7.72;;;1.30;99.90;;;;;;5075133;28;20028;-80
2023/12/20 12:14:04;;;;;;;12.30;7.20;;;1.30;99.90;;;;;;5059671;28;20075;-80
2023/12/20 12:16:30;;;;;;;13.68;7.60;;;1.30;99.90;;;;;;5060088;28;20396;-79
2023/12/20 12:18:59;;;;;;;15.40;8.30;;;1.30;99.90;;;;;;5075134;28;20431;-80
2023/12/20 12:21:25;;;;;;;14.70;7.88;;;1.30;99.90;;;;;;5057627;28;20032;-80
2023/12/20 12:23:51;;;;;;;16.58;9.13;;;1.40;99.90;;;;;;5058520;28;20059;-80
2023/12/20 12:26:17;;;;;;;16.38;9.20;;;1.40;99.90;;;;;;5058018;28;20032;-80
2023/12/20 12:28:43;;;;;;;15.05;8.95;;;1.40;99.90;;;;;;5060268;28;20386;-80
2023/12/20 12:31:14;;;;;;;16.15;9.18;;;1.40;99.90;;;;;;5061474;28;20021;-79
2023/12/20 12:33:41;;;;;;;23.27;13.02;;;1.40;99.90;;;;;;5060033;28;20115;-80
2023/12/20 12:36:07;;;;;;;14.13;8.90;;;1.40;99.90;;;;;;5059311;28;20029;-80
2023/12/20 12:38:34;;;;;;;15.23;8.80;;;1.40;99.90;;;;;;5061364;28;20025;-80